sensor_id;sensor_type;location;lat;lon;timestamp;P1;P2;P0
49708;PMS5003;35601;55.902;13.606;2023-12-29T00:00:28;13;8;
49708;PMS5003;35601;55.902;13.606;2023-12-29T00:02:53;11;8;
49708;PMS5003;35601;55.902;13.606;2023-12-29T00:05:18;14;8;
49708;PMS5003;35601;55.902;13.606;2023-12-29T00:07:43;8;7;
49708;PMS5003;35601;55.902;13.606;2023-12-29T00:10:09;12;7;
49708;PMS5003;35601;55.902;13.606;2023-12-29T00:12:35;8;8;
49708;PMS5003;35601;55.902;13.606;2023-12-29T00:15:01;10;9;
49708;PMS5003;35601;55.902;13.606;2023-12-29T00:17:26;14;9;
49708;PMS5003;35601;55.902;13.606;2023-12-29T00:19:51;7;7;
49708;PMS5003;35601;55.902;13.606;2023-12-29T00:22:17;17;14;
49708;PMS5003;35601;55.902;13.606;2023-12-29T00:24:42;9;8;
49708;PMS5003;35601;55.902;13.606;2023-12-29T00:27:08;9;7;
49708;PMS5003;35601;55.902;13.606;2023-12-29T00:29:33;9;9;
49708;PMS5003;35601;55.902;13.606;2023-12-29T00:31:59;12;8;
49708;PMS5003;35601;55.902;13.606;2023-12-29T00:34:24;13;10;
49708;PMS5003;35601;55.902;13.606;2023-12-29T00:36:49;11;11;
49708;PMS5003;35601;55.902;13.606;2023-12-29T00:39:15;13;10;
49708;PMS5003;35601;55.902;13.606;2023-12-29T00:41:41;12;7;
49708;PMS5003;35601;55.902;13.606;2023-12-29T00:44:07;11;9;
49708;PMS5003;35601;55.902;13.606;2023-12-29T00:46:32;11;9;
49708;PMS5003;35601;55.902;13.606;2023-12-29T00:48:58;14;11;
49708;PMS5003;35601;55.902;13.606;2023-12-29T00:51:23;13;9;
49708;PMS5003;35601;55.902;13.606;2023-12-29T00:53:48;14;9;
49708;PMS5003;35601;55.902;13.606;2023-12-29T00:56:14;11;9;
49708;PMS5003;35601;55.902;13.606;2023-12-29T00:58:39;12;7;
49708;PMS5003;35601;55.902;13.606;2023-12-29T01:01:06;12;10;
49708;PMS5003;35601;55.902;13.606;2023-12-29T01:03:31;12;9;
49708;PMS5003;35601;55.902;13.606;2023-12-29T01:05:56;12;8;
49708;PMS5003;35601;55.902;13.606;2023-12-29T01:08:22;8;7;
49708;PMS5003;35601;55.902;13.606;2023-12-29T01:10:48;8;7;
49708;PMS5003;35601;55.902;13.606;2023-12-29T01:13:13;8;7;
49708;PMS5003;35601;55.902;13.606;2023-12-29T01:15:38;9;7;
49708;PMS5003;35601;55.902;13.606;2023-12-29T01:18:04;8;7;
49708;PMS5003;35601;55.902;13.606;2023-12-29T01:20:29;9;6;
49708;PMS5003;35601;55.902;13.606;2023-12-29T01:22:54;6;6;
49708;PMS5003;35601;55.902;13.606;2023-12-29T01:25:20;14;13;
49708;PMS5003;35601;55.902;13.606;2023-12-29T01:27:45;10;6;
49708;PMS5003;35601;55.902;13.606;2023-12-29T01:30:10;8;8;
49708;PMS5003;35601;55.902;13.606;2023-12-29T01:32:35;9;7;
49708;PMS5003;35601;55.902;13.606;2023-12-29T01:35:01;9;8;
49708;PMS5003;35601;55.902;13.606;2023-12-29T01:37:26;10;9;
49708;PMS5003;35601;55.902;13.606;2023-12-29T01:39:52;11;10;
49708;PMS5003;35601;55.902;13.606;2023-12-29T01:42:17;10;9;
49708;PMS5003;35601;55.902;13.606;2023-12-29T01:44:43;19;10;
49708;PMS5003;35601;55.902;13.606;2023-12-29T01:47:10;12;8;
49708;PMS5003;35601;55.902;13.606;2023-12-29T01:49:33;8;8;
49708;PMS5003;35601;55.902;13.606;2023-12-29T01:51:59;9;6;
49708;PMS5003;35601;55.902;13.606;2023-12-29T01:54:25;12;10;
49708;PMS5003;35601;55.902;13.606;2023-12-29T01:56:50;12;10;
49708;PMS5003;35601;55.902;13.606;2023-12-29T01:59:15;10;9;
49708;PMS5003;35601;55.902;13.606;2023-12-29T02:01:40;11;7;
49708;PMS5003;35601;55.902;13.606;2023-12-29T02:04:06;8;6;
49708;PMS5003;35601;55.902;13.606;2023-12-29T02:06:31;10;7;
49708;PMS5003;35601;55.902;13.606;2023-12-29T02:08:57;8;8;
49708;PMS5003;35601;55.902;13.606;2023-12-29T02:11:22;8;6;
49708;PMS5003;35601;55.902;13.606;2023-12-29T02:13:47;6;4;
49708;PMS5003;35601;55.902;13.606;2023-12-29T02:16:14;7;3;
49708;PMS5003;35601;55.902;13.606;2023-12-29T02:18:38;4;4;
49708;PMS5003;35601;55.902;13.606;2023-12-29T02:21:03;8;4;
49708;PMS5003;35601;55.902;13.606;2023-12-29T02:23:28;8;4;
49708;PMS5003;35601;55.902;13.606;2023-12-29T02:25:54;4;3;
49708;PMS5003;35601;55.902;13.606;2023-12-29T02:28:20;2;1;
49708;PMS5003;35601;55.902;13.606;2023-12-29T02:30:45;3;2;
49708;PMS5003;35601;55.902;13.606;2023-12-29T02:33:12;0;0;
49708;PMS5003;35601;55.902;13.606;2023-12-29T02:35:37;6;2;
49708;PMS5003;35601;55.902;13.606;2023-12-29T02:38:00;0;0;
49708;PMS5003;35601;55.902;13.606;2023-12-29T02:40:26;3;1;
49708;PMS5003;35601;55.902;13.606;2023-12-29T02:42:51;2;1;
49708;PMS5003;35601;55.902;13.606;2023-12-29T02:45:17;1;0;
49708;PMS5003;35601;55.902;13.606;2023-12-29T02:47:42;1;1;
49708;PMS5003;35601;55.902;13.606;2023-12-29T02:50:08;0;0;
49708;PMS5003;35601;55.902;13.606;2023-12-29T02:52:33;2;1;
49708;PMS5003;35601;55.902;13.606;2023-12-29T02:54:58;3;3;
49708;PMS5003;35601;55.902;13.606;2023-12-29T02:57:24;0;0;
49708;PMS5003;35601;55.902;13.606;2023-12-29T02:59:49;2;1;
49708;PMS5003;35601;55.902;13.606;2023-12-29T03:02:14;5;2;
49708;PMS5003;35601;55.902;13.606;2023-12-29T03:04:39;1;1;
49708;PMS5003;35601;55.902;13.606;2023-12-29T03:07:05;2;2;
49708;PMS5003;35601;55.902;13.606;2023-12-29T03:09:30;2;2;
49708;PMS5003;35601;55.902;13.606;2023-12-29T03:11:55;2;2;
49708;PMS5003;35601;55.902;13.606;2023-12-29T03:14:21;7;2;
49708;PMS5003;35601;55.902;13.606;2023-12-29T03:16:46;2;2;
49708;PMS5003;35601;55.902;13.606;2023-12-29T03:19:11;5;4;
49708;PMS5003;35601;55.902;13.606;2023-12-29T03:21:37;6;1;
49708;PMS5003;35601;55.902;13.606;2023-12-29T03:24:02;4;2;
49708;PMS5003;35601;55.902;13.606;2023-12-29T03:26:27;3;1;
49708;PMS5003;35601;55.902;13.606;2023-12-29T03:28:53;1;1;
49708;PMS5003;35601;55.902;13.606;2023-12-29T03:31:18;0;0;
49708;PMS5003;35601;55.902;13.606;2023-12-29T03:33:43;1;1;
49708;PMS5003;35601;55.902;13.606;2023-12-29T03:36:08;5;2;
49708;PMS5003;35601;55.902;13.606;2023-12-29T03:38:33;3;0;
49708;PMS5003;35601;55.902;13.606;2023-12-29T03:40:59;3;2;
49708;PMS5003;35601;55.902;13.606;2023-12-29T03:43:24;3;1;
49708;PMS5003;35601;55.902;13.606;2023-12-29T03:45:50;5;1;
49708;PMS5003;35601;55.902;13.606;2023-12-29T03:48:14;2;1;
49708;PMS5003;35601;55.902;13.606;2023-12-29T03:50:40;3;0;
49708;PMS5003;35601;55.902;13.606;2023-12-29T03:53:05;5;1;
49708;PMS5003;35601;55.902;13.606;2023-12-29T03:55:31;2;2;
49708;PMS5003;35601;55.902;13.606;2023-12-29T03:57:56;2;1;
49708;PMS5003;35601;55.902;13.606;2023-12-29T04:00:21;3;2;
49708;PMS5003;35601;55.902;13.606;2023-12-29T04:02:47;3;1;
49708;PMS5003;35601;55.902;13.606;2023-12-29T04:05:12;3;3;
49708;PMS5003;35601;55.902;13.606;2023-12-29T04:07:38;3;1;
49708;PMS5003;35601;55.902;13.606;2023-12-29T04:10:03;1;1;
49708;PMS5003;35601;55.902;13.606;2023-12-29T04:12:28;2;0;
49708;PMS5003;35601;55.902;13.606;2023-12-29T04:14:53;1;1;
49708;PMS5003;35601;55.902;13.606;2023-12-29T04:17:18;2;1;
49708;PMS5003;35601;55.902;13.606;2023-12-29T04:19:43;1;1;
49708;PMS5003;35601;55.902;13.606;2023-12-29T04:22:09;3;3;
49708;PMS5003;35601;55.902;13.606;2023-12-29T04:24:34;2;1;
49708;PMS5003;35601;55.902;13.606;2023-12-29T04:26:59;2;1;
49708;PMS5003;35601;55.902;13.606;2023-12-29T04:29:25;4;2;
49708;PMS5003;35601;55.902;13.606;2023-12-29T04:31:50;2;2;
49708;PMS5003;35601;55.902;13.606;2023-12-29T04:34:15;1;1;
49708;PMS5003;35601;55.902;13.606;2023-12-29T04:36:40;1;1;
49708;PMS5003;35601;55.902;13.606;2023-12-29T04:39:06;1;0;
49708;PMS5003;35601;55.902;13.606;2023-12-29T04:41:31;5;2;
49708;PMS5003;35601;55.902;13.606;2023-12-29T04:43:57;1;1;
49708;PMS5003;35601;55.902;13.606;2023-12-29T04:46:22;1;1;
49708;PMS5003;35601;55.902;13.606;2023-12-29T04:48:47;3;3;
49708;PMS5003;35601;55.902;13.606;2023-12-29T04:51:13;3;1;
49708;PMS5003;35601;55.902;13.606;2023-12-29T04:53:38;4;2;
49708;PMS5003;35601;55.902;13.606;2023-12-29T04:56:03;3;2;
49708;PMS5003;35601;55.902;13.606;2023-12-29T04:58:28;1;1;
49708;PMS5003;35601;55.902;13.606;2023-12-29T05:00:54;1;1;
49708;PMS5003;35601;55.902;13.606;2023-12-29T05:03:19;5;3;
49708;PMS5003;35601;55.902;13.606;2023-12-29T05:05:44;3;3;
49708;PMS5003;35601;55.902;13.606;2023-12-29T05:08:09;4;0;
49708;PMS5003;35601;55.902;13.606;2023-12-29T05:10:35;3;1;
49708;PMS5003;35601;55.902;13.606;2023-12-29T05:13:00;2;0;
49708;PMS5003;35601;55.902;13.606;2023-12-29T05:15:25;4;2;
49708;PMS5003;35601;55.902;13.606;2023-12-29T05:17:51;1;1;
49708;PMS5003;35601;55.902;13.606;2023-12-29T05:20:16;4;2;
49708;PMS5003;35601;55.902;13.606;2023-12-29T05:22:41;0;0;
49708;PMS5003;35601;55.902;13.606;2023-12-29T05:25:07;3;2;
49708;PMS5003;35601;55.902;13.606;2023-12-29T05:27:32;2;1;
49708;PMS5003;35601;55.902;13.606;2023-12-29T05:29:57;2;2;
49708;PMS5003;35601;55.902;13.606;2023-12-29T05:32:22;4;1;
49708;PMS5003;35601;55.902;13.606;2023-12-29T05:34:48;1;1;
49708;PMS5003;35601;55.902;13.606;2023-12-29T05:37:13;2;2;
49708;PMS5003;35601;55.902;13.606;2023-12-29T05:39:41;2;1;
49708;PMS5003;35601;55.902;13.606;2023-12-29T05:42:03;5;4;
49708;PMS5003;35601;55.902;13.606;2023-12-29T05:44:29;0;0;
49708;PMS5003;35601;55.902;13.606;2023-12-29T05:46:54;4;1;
49708;PMS5003;35601;55.902;13.606;2023-12-29T05:49:23;3;2;
49708;PMS5003;35601;55.902;13.606;2023-12-29T05:51:45;1;1;
49708;PMS5003;35601;55.902;13.606;2023-12-29T05:54:10;0;0;
49708;PMS5003;35601;55.902;13.606;2023-12-29T05:56:36;2;2;
49708;PMS5003;35601;55.902;13.606;2023-12-29T05:59:02;2;1;
49708;PMS5003;35601;55.902;13.606;2023-12-29T06:01:27;3;1;
49708;PMS5003;35601;55.902;13.606;2023-12-29T06:03:52;2;0;
49708;PMS5003;35601;55.902;13.606;2023-12-29T06:06:17;1;1;
49708;PMS5003;35601;55.902;13.606;2023-12-29T06:08:42;1;1;
49708;PMS5003;35601;55.902;13.606;2023-12-29T06:11:08;2;0;
49708;PMS5003;35601;55.902;13.606;2023-12-29T06:13:33;1;1;
49708;PMS5003;35601;55.902;13.606;2023-12-29T06:15:59;0;0;
49708;PMS5003;35601;55.902;13.606;2023-12-29T06:18:24;3;1;
49708;PMS5003;35601;55.902;13.606;2023-12-29T06:20:49;2;2;
49708;PMS5003;35601;55.902;13.606;2023-12-29T06:23:15;3;2;
49708;PMS5003;35601;55.902;13.606;2023-12-29T06:25:40;1;1;
49708;PMS5003;35601;55.902;13.606;2023-12-29T06:28:05;0;0;
49708;PMS5003;35601;55.902;13.606;2023-12-29T06:30:31;2;0;
49708;PMS5003;35601;55.902;13.606;2023-12-29T06:32:56;1;1;
49708;PMS5003;35601;55.902;13.606;2023-12-29T06:35:21;0;0;
49708;PMS5003;35601;55.902;13.606;2023-12-29T06:37:46;2;2;
49708;PMS5003;35601;55.902;13.606;2023-12-29T06:40:12;1;1;
49708;PMS5003;35601;55.902;13.606;2023-12-29T06:42:38;3;2;
49708;PMS5003;35601;55.902;13.606;2023-12-29T06:45:04;1;1;
49708;PMS5003;35601;55.902;13.606;2023-12-29T06:47:28;2;1;
49708;PMS5003;35601;55.902;13.606;2023-12-29T06:49:54;3;0;
49708;PMS5003;35601;55.902;13.606;2023-12-29T06:52:19;0;0;
49708;PMS5003;35601;55.902;13.606;2023-12-29T06:54:44;1;1;
49708;PMS5003;35601;55.902;13.606;2023-12-29T06:57:09;1;1;
49708;PMS5003;35601;55.902;13.606;2023-12-29T06:59:35;3;1;
49708;PMS5003;35601;55.902;13.606;2023-12-29T07:02:00;1;1;
49708;PMS5003;35601;55.902;13.606;2023-12-29T07:04:25;4;2;
49708;PMS5003;35601;55.902;13.606;2023-12-29T07:06:51;3;1;
49708;PMS5003;35601;55.902;13.606;2023-12-29T07:09:16;3;3;
49708;PMS5003;35601;55.902;13.606;2023-12-29T07:11:41;4;2;
49708;PMS5003;35601;55.902;13.606;2023-12-29T07:14:06;3;1;
49708;PMS5003;35601;55.902;13.606;2023-12-29T07:16:32;2;2;
49708;PMS5003;35601;55.902;13.606;2023-12-29T07:18:57;2;2;
49708;PMS5003;35601;55.902;13.606;2023-12-29T07:21:22;2;2;
49708;PMS5003;35601;55.902;13.606;2023-12-29T07:23:47;2;2;
49708;PMS5003;35601;55.902;13.606;2023-12-29T07:26:13;3;2;
49708;PMS5003;35601;55.902;13.606;2023-12-29T07:28:38;3;1;
49708;PMS5003;35601;55.902;13.606;2023-12-29T07:31:03;2;2;
49708;PMS5003;35601;55.902;13.606;2023-12-29T07:33:29;3;1;
49708;PMS5003;35601;55.902;13.606;2023-12-29T07:35:54;2;1;
49708;PMS5003;35601;55.902;13.606;2023-12-29T07:38:19;5;2;
49708;PMS5003;35601;55.902;13.606;2023-12-29T07:40:44;2;2;
49708;PMS5003;35601;55.902;13.606;2023-12-29T07:43:10;3;2;
49708;PMS5003;35601;55.902;13.606;2023-12-29T07:45:35;1;1;
49708;PMS5003;35601;55.902;13.606;2023-12-29T07:48:01;4;2;
49708;PMS5003;35601;55.902;13.606;2023-12-29T07:50:26;3;2;
49708;PMS5003;35601;55.902;13.606;2023-12-29T07:52:51;5;3;
49708;PMS5003;35601;55.902;13.606;2023-12-29T07:55:16;7;4;
49708;PMS5003;35601;55.902;13.606;2023-12-29T07:57:42;5;5;
49708;PMS5003;35601;55.902;13.606;2023-12-29T08:00:08;7;5;
49708;PMS5003;35601;55.902;13.606;2023-12-29T08:02:33;8;4;
49708;PMS5003;35601;55.902;13.606;2023-12-29T08:04:59;8;4;
49708;PMS5003;35601;55.902;13.606;2023-12-29T08:07:24;4;4;
49708;PMS5003;35601;55.902;13.606;2023-12-29T08:09:49;6;5;
49708;PMS5003;35601;55.902;13.606;2023-12-29T08:12:14;4;4;
49708;PMS5003;35601;55.902;13.606;2023-12-29T08:14:40;5;3;
49708;PMS5003;35601;55.902;13.606;2023-12-29T08:17:06;6;4;
49708;PMS5003;35601;55.902;13.606;2023-12-29T08:19:31;9;4;
49708;PMS5003;35601;55.902;13.606;2023-12-29T08:21:57;8;2;
49708;PMS5003;35601;55.902;13.606;2023-12-29T08:24:23;7;4;
49708;PMS5003;35601;55.902;13.606;2023-12-29T08:26:48;23;13;
49708;PMS5003;35601;55.902;13.606;2023-12-29T08:29:14;5;5;
49708;PMS5003;35601;55.902;13.606;2023-12-29T08:31:39;6;4;
49708;PMS5003;35601;55.902;13.606;2023-12-29T08:34:05;5;5;
49708;PMS5003;35601;55.902;13.606;2023-12-29T08:36:30;3;3;
49708;PMS5003;35601;55.902;13.606;2023-12-29T08:38:55;6;3;
49708;PMS5003;35601;55.902;13.606;2023-12-29T08:41:20;6;4;
49708;PMS5003;35601;55.902;13.606;2023-12-29T08:43:46;4;4;
49708;PMS5003;35601;55.902;13.606;2023-12-29T08:46:12;5;3;
49708;PMS5003;35601;55.902;13.606;2023-12-29T08:48:37;5;3;
49708;PMS5003;35601;55.902;13.606;2023-12-29T08:51:02;1;1;
49708;PMS5003;35601;55.902;13.606;2023-12-29T08:53:27;1;1;
49708;PMS5003;35601;55.902;13.606;2023-12-29T08:55:53;2;2;
49708;PMS5003;35601;55.902;13.606;2023-12-29T08:58:18;3;2;
49708;PMS5003;35601;55.902;13.606;2023-12-29T09:00:43;3;2;
49708;PMS5003;35601;55.902;13.606;2023-12-29T09:03:08;3;3;
49708;PMS5003;35601;55.902;13.606;2023-12-29T09:05:34;6;6;
49708;PMS5003;35601;55.902;13.606;2023-12-29T09:08:00;4;2;
49708;PMS5003;35601;55.902;13.606;2023-12-29T09:10:25;5;3;
49708;PMS5003;35601;55.902;13.606;2023-12-29T09:12:51;4;2;
49708;PMS5003;35601;55.902;13.606;2023-12-29T09:15:16;5;1;
49708;PMS5003;35601;55.902;13.606;2023-12-29T09:17:41;6;3;
49708;PMS5003;35601;55.902;13.606;2023-12-29T09:20:07;5;3;
49708;PMS5003;35601;55.902;13.606;2023-12-29T09:22:32;4;4;
49708;PMS5003;35601;55.902;13.606;2023-12-29T09:24:57;7;4;
49708;PMS5003;35601;55.902;13.606;2023-12-29T09:27:22;6;5;
49708;PMS5003;35601;55.902;13.606;2023-12-29T09:29:49;4;2;
49708;PMS5003;35601;55.902;13.606;2023-12-29T09:32:13;6;4;
49708;PMS5003;35601;55.902;13.606;2023-12-29T09:34:39;8;5;
49708;PMS5003;35601;55.902;13.606;2023-12-29T09:37:04;10;7;
49708;PMS5003;35601;55.902;13.606;2023-12-29T09:39:30;7;6;
49708;PMS5003;35601;55.902;13.606;2023-12-29T09:41:57;12;7;
49708;PMS5003;35601;55.902;13.606;2023-12-29T09:44:21;8;6;
49708;PMS5003;35601;55.902;13.606;2023-12-29T09:46:46;6;5;
49708;PMS5003;35601;55.902;13.606;2023-12-29T09:49:11;5;5;
49708;PMS5003;35601;55.902;13.606;2023-12-29T09:51:37;6;4;
49708;PMS5003;35601;55.902;13.606;2023-12-29T09:54:02;9;5;
49708;PMS5003;35601;55.902;13.606;2023-12-29T09:56:28;9;7;
49708;PMS5003;35601;55.902;13.606;2023-12-29T09:58:53;8;5;
49708;PMS5003;35601;55.902;13.606;2023-12-29T10:01:18;14;10;
49708;PMS5003;35601;55.902;13.606;2023-12-29T10:03:43;9;4;
49708;PMS5003;35601;55.902;13.606;2023-12-29T10:06:09;8;6;
49708;PMS5003;35601;55.902;13.606;2023-12-29T10:08:34;9;5;
49708;PMS5003;35601;55.902;13.606;2023-12-29T10:11:00;6;4;
49708;PMS5003;35601;55.902;13.606;2023-12-29T10:13:26;5;5;
49708;PMS5003;35601;55.902;13.606;2023-12-29T10:15:53;13;4;
49708;PMS5003;35601;55.902;13.606;2023-12-29T10:18:22;10;5;
49708;PMS5003;35601;55.902;13.606;2023-12-29T10:20:44;11;7;
49708;PMS5003;35601;55.902;13.606;2023-12-29T10:23:08;12;8;
49708;PMS5003;35601;55.902;13.606;2023-12-29T10:25:34;16;6;
49708;PMS5003;35601;55.902;13.606;2023-12-29T10:27:59;5;5;
49708;PMS5003;35601;55.902;13.606;2023-12-29T10:30:24;10;4;
49708;PMS5003;35601;55.902;13.606;2023-12-29T10:32:50;10;6;
49708;PMS5003;35601;55.902;13.606;2023-12-29T10:35:15;11;8;
49708;PMS5003;35601;55.902;13.606;2023-12-29T10:37:41;12;8;
49708;PMS5003;35601;55.902;13.606;2023-12-29T10:40:07;18;7;
49708;PMS5003;35601;55.902;13.606;2023-12-29T10:42:32;10;6;
49708;PMS5003;35601;55.902;13.606;2023-12-29T10:47:23;11;9;
49708;PMS5003;35601;55.902;13.606;2023-12-29T10:49:49;9;6;
49708;PMS5003;35601;55.902;13.606;2023-12-29T10:52:14;7;5;
49708;PMS5003;35601;55.902;13.606;2023-12-29T10:54:39;11;8;
49708;PMS5003;35601;55.902;13.606;2023-12-29T10:57:04;14;10;
49708;PMS5003;35601;55.902;13.606;2023-12-29T10:59:30;11;6;
49708;PMS5003;35601;55.902;13.606;2023-12-29T11:01:55;13;8;
49708;PMS5003;35601;55.902;13.606;2023-12-29T11:04:21;11;6;
49708;PMS5003;35601;55.902;13.606;2023-12-29T11:06:46;9;8;
49708;PMS5003;35601;55.902;13.606;2023-12-29T11:09:12;19;13;
49708;PMS5003;35601;55.902;13.606;2023-12-29T11:11:38;10;7;
49708;PMS5003;35601;55.902;13.606;2023-12-29T11:14:03;7;6;
49708;PMS5003;35601;55.902;13.606;2023-12-29T11:16:29;9;4;
49708;PMS5003;35601;55.902;13.606;2023-12-29T11:18:54;14;7;
49708;PMS5003;35601;55.902;13.606;2023-12-29T11:21:21;13;9;
49708;PMS5003;35601;55.902;13.606;2023-12-29T11:23:46;13;5;
49708;PMS5003;35601;55.902;13.606;2023-12-29T11:26:11;9;6;
49708;PMS5003;35601;55.902;13.606;2023-12-29T11:28:37;11;5;
49708;PMS5003;35601;55.902;13.606;2023-12-29T11:31:03;13;7;
49708;PMS5003;35601;55.902;13.606;2023-12-29T11:33:30;11;7;
49708;PMS5003;35601;55.902;13.606;2023-12-29T11:35:54;7;5;
49708;PMS5003;35601;55.902;13.606;2023-12-29T11:38:23;8;6;
49708;PMS5003;35601;55.902;13.606;2023-12-29T11:40:46;13;5;
49708;PMS5003;35601;55.902;13.606;2023-12-29T11:43:12;13;7;
49708;PMS5003;35601;55.902;13.606;2023-12-29T11:45:35;11;8;
49708;PMS5003;35601;55.902;13.606;2023-12-29T11:48:01;7;3;
49708;PMS5003;35601;55.902;13.606;2023-12-29T11:50:27;11;7;
49708;PMS5003;35601;55.902;13.606;2023-12-29T11:52:51;8;6;
49708;PMS5003;35601;55.902;13.606;2023-12-29T11:55:17;10;7;
49708;PMS5003;35601;55.902;13.606;2023-12-29T11:57:43;6;5;
49708;PMS5003;35601;55.902;13.606;2023-12-29T12:00:08;6;5;
49708;PMS5003;35601;55.902;13.606;2023-12-29T12:02:33;7;3;
49708;PMS5003;35601;55.902;13.606;2023-12-29T12:04:59;7;6;
49708;PMS5003;35601;55.902;13.606;2023-12-29T12:09:50;3;3;
49708;PMS5003;35601;55.902;13.606;2023-12-29T12:14:43;11;4;
49708;PMS5003;35601;55.902;13.606;2023-12-29T12:17:07;5;3;
49708;PMS5003;35601;55.902;13.606;2023-12-29T12:19:32;8;3;
49708;PMS5003;35601;55.902;13.606;2023-12-29T12:21:58;9;7;
49708;PMS5003;35601;55.902;13.606;2023-12-29T12:24:23;2;2;
49708;PMS5003;35601;55.902;13.606;2023-12-29T12:26:48;5;2;
49708;PMS5003;35601;55.902;13.606;2023-12-29T12:29:14;6;5;
49708;PMS5003;35601;55.902;13.606;2023-12-29T12:31:43;5;3;
49708;PMS5003;35601;55.902;13.606;2023-12-29T12:34:04;6;4;
49708;PMS5003;35601;55.902;13.606;2023-12-29T12:36:30;7;6;
49708;PMS5003;35601;55.902;13.606;2023-12-29T12:38:56;4;3;
49708;PMS5003;35601;55.902;13.606;2023-12-29T12:41:20;8;4;
49708;PMS5003;35601;55.902;13.606;2023-12-29T12:43:59;5;5;
49708;PMS5003;35601;55.902;13.606;2023-12-29T12:46:11;6;4;
49708;PMS5003;35601;55.902;13.606;2023-12-29T12:48:40;9;7;
49708;PMS5003;35601;55.902;13.606;2023-12-29T12:51:03;10;6;
49708;PMS5003;35601;55.902;13.606;2023-12-29T12:53:28;6;5;
49708;PMS5003;35601;55.902;13.606;2023-12-29T12:55:53;4;4;
49708;PMS5003;35601;55.902;13.606;2023-12-29T12:58:18;9;6;
49708;PMS5003;35601;55.902;13.606;2023-12-29T13:00:44;4;3;
49708;PMS5003;35601;55.902;13.606;2023-12-29T13:03:10;8;5;
49708;PMS5003;35601;55.902;13.606;2023-12-29T13:05:35;4;4;
49708;PMS5003;35601;55.902;13.606;2023-12-29T13:08:00;6;6;
49708;PMS5003;35601;55.902;13.606;2023-12-29T13:10:25;14;6;
49708;PMS5003;35601;55.902;13.606;2023-12-29T13:12:52;6;5;
49708;PMS5003;35601;55.902;13.606;2023-12-29T13:15:17;10;7;
49708;PMS5003;35601;55.902;13.606;2023-12-29T13:20:07;9;6;
49708;PMS5003;35601;55.902;13.606;2023-12-29T13:22:33;5;4;
49708;PMS5003;35601;55.902;13.606;2023-12-29T13:24:58;10;8;
49708;PMS5003;35601;55.902;13.606;2023-12-29T13:27:23;8;7;
49708;PMS5003;35601;55.902;13.606;2023-12-29T13:29:49;10;4;
49708;PMS5003;35601;55.902;13.606;2023-12-29T13:32:15;7;4;
49708;PMS5003;35601;55.902;13.606;2023-12-29T13:34:43;6;4;
49708;PMS5003;35601;55.902;13.606;2023-12-29T13:37:08;7;3;
49708;PMS5003;35601;55.902;13.606;2023-12-29T13:39:35;7;5;
49708;PMS5003;35601;55.902;13.606;2023-12-29T13:41:57;10;6;
49708;PMS5003;35601;55.902;13.606;2023-12-29T13:44:23;11;6;
49708;PMS5003;35601;55.902;13.606;2023-12-29T13:46:48;12;10;
49708;PMS5003;35601;55.902;13.606;2023-12-29T13:49:14;7;4;
49708;PMS5003;35601;55.902;13.606;2023-12-29T13:51:40;8;5;
49708;PMS5003;35601;55.902;13.606;2023-12-29T13:54:06;5;4;
49708;PMS5003;35601;55.902;13.606;2023-12-29T13:56:31;11;6;
49708;PMS5003;35601;55.902;13.606;2023-12-29T13:58:57;10;4;
49708;PMS5003;35601;55.902;13.606;2023-12-29T14:01:22;7;7;
49708;PMS5003;35601;55.902;13.606;2023-12-29T14:03:50;5;4;
49708;PMS5003;35601;55.902;13.606;2023-12-29T14:06:19;6;4;
49708;PMS5003;35601;55.902;13.606;2023-12-29T14:08:39;6;3;
49708;PMS5003;35601;55.902;13.606;2023-12-29T14:11:06;3;3;
49708;PMS5003;35601;55.902;13.606;2023-12-29T14:13:29;5;3;
49708;PMS5003;35601;55.902;13.606;2023-12-29T14:15:57;5;4;
49708;PMS5003;35601;55.902;13.606;2023-12-29T14:18:27;7;4;
49708;PMS5003;35601;55.902;13.606;2023-12-29T14:20:45;7;3;
49708;PMS5003;35601;55.902;13.606;2023-12-29T14:23:11;8;4;
49708;PMS5003;35601;55.902;13.606;2023-12-29T14:25:37;9;5;
49708;PMS5003;35601;55.902;13.606;2023-12-29T14:28:02;7;3;
49708;PMS5003;35601;55.902;13.606;2023-12-29T14:30:27;7;4;
49708;PMS5003;35601;55.902;13.606;2023-12-29T14:32:52;5;4;
49708;PMS5003;35601;55.902;13.606;2023-12-29T14:35:18;9;6;
49708;PMS5003;35601;55.902;13.606;2023-12-29T14:37:43;6;4;
49708;PMS5003;35601;55.902;13.606;2023-12-29T14:40:10;4;2;
49708;PMS5003;35601;55.902;13.606;2023-12-29T14:42:34;4;2;
49708;PMS5003;35601;55.902;13.606;2023-12-29T14:44:59;3;2;
49708;PMS5003;35601;55.902;13.606;2023-12-29T14:47:24;2;2;
49708;PMS5003;35601;55.902;13.606;2023-12-29T14:49:49;3;3;
49708;PMS5003;35601;55.902;13.606;2023-12-29T14:52:15;3;1;
49708;PMS5003;35601;55.902;13.606;2023-12-29T14:54:41;4;3;
49708;PMS5003;35601;55.902;13.606;2023-12-29T14:57:06;5;2;
49708;PMS5003;35601;55.902;13.606;2023-12-29T14:59:31;2;2;
49708;PMS5003;35601;55.902;13.606;2023-12-29T15:01:56;3;1;
49708;PMS5003;35601;55.902;13.606;2023-12-29T15:04:22;3;2;
49708;PMS5003;35601;55.902;13.606;2023-12-29T15:06:47;2;2;
49708;PMS5003;35601;55.902;13.606;2023-12-29T15:09:12;5;3;
49708;PMS5003;35601;55.902;13.606;2023-12-29T15:11:37;2;2;
49708;PMS5003;35601;55.902;13.606;2023-12-29T15:14:03;12;4;
49708;PMS5003;35601;55.902;13.606;2023-12-29T15:16:28;8;3;
49708;PMS5003;35601;55.902;13.606;2023-12-29T15:18:54;10;10;
49708;PMS5003;35601;55.902;13.606;2023-12-29T15:21:19;6;3;
49708;PMS5003;35601;55.902;13.606;2023-12-29T15:23:44;4;3;
49708;PMS5003;35601;55.902;13.606;2023-12-29T15:26:10;5;3;
49708;PMS5003;35601;55.902;13.606;2023-12-29T15:28:35;7;4;
49708;PMS5003;35601;55.902;13.606;2023-12-29T15:31:00;9;4;
49708;PMS5003;35601;55.902;13.606;2023-12-29T15:33:26;10;8;
49708;PMS5003;35601;55.902;13.606;2023-12-29T15:35:51;10;3;
49708;PMS5003;35601;55.902;13.606;2023-12-29T15:38:17;10;5;
49708;PMS5003;35601;55.902;13.606;2023-12-29T15:40:42;7;6;
49708;PMS5003;35601;55.902;13.606;2023-12-29T15:43:07;12;6;
49708;PMS5003;35601;55.902;13.606;2023-12-29T15:45:32;8;5;
49708;PMS5003;35601;55.902;13.606;2023-12-29T15:47:58;12;8;
49708;PMS5003;35601;55.902;13.606;2023-12-29T15:50:23;11;9;
49708;PMS5003;35601;55.902;13.606;2023-12-29T15:52:48;5;4;
49708;PMS5003;35601;55.902;13.606;2023-12-29T15:55:14;13;8;
49708;PMS5003;35601;55.902;13.606;2023-12-29T15:57:39;14;8;
49708;PMS5003;35601;55.902;13.606;2023-12-29T16:00:05;10;7;
49708;PMS5003;35601;55.902;13.606;2023-12-29T16:02:30;11;7;
49708;PMS5003;35601;55.902;13.606;2023-12-29T16:04:56;7;6;
49708;PMS5003;35601;55.902;13.606;2023-12-29T16:07:21;14;9;
49708;PMS5003;35601;55.902;13.606;2023-12-29T16:09:47;4;4;
49708;PMS5003;35601;55.902;13.606;2023-12-29T16:12:12;11;8;
49708;PMS5003;35601;55.902;13.606;2023-12-29T16:14:37;8;6;
49708;PMS5003;35601;55.902;13.606;2023-12-29T16:17:03;9;6;
49708;PMS5003;35601;55.902;13.606;2023-12-29T16:19:28;12;6;
49708;PMS5003;35601;55.902;13.606;2023-12-29T16:21:53;14;7;
49708;PMS5003;35601;55.902;13.606;2023-12-29T16:24:19;13;8;